sensor_id;sensor_type;location;lat;lon;timestamp;temperature;humidity
36654;DHT22;22650;49.350;20.898;2023-04-03T00:00:39;3.60;99.90
36654;DHT22;22650;49.350;20.898;2023-04-03T00:03:13;3.60;99.90
36654;DHT22;22650;49.350;20.898;2023-04-03T00:05:47;3.50;99.90
36654;DHT22;22650;49.350;20.898;2023-04-03T00:08:20;3.50;99.90
36654;DHT22;22650;49.350;20.898;2023-04-03T00:10:55;3.50;99.90
36654;DHT22;22650;49.350;20.898;2023-04-03T00:13:29;3.40;99.90
36654;DHT22;22650;49.350;20.898;2023-04-03T00:16:03;3.40;99.90
36654;DHT22;22650;49.350;20.898;2023-04-03T00:18:38;3.40;99.90
36654;DHT22;22650;49.350;20.898;2023-04-03T00:21:13;3.40;99.90
36654;DHT22;22650;49.350;20.898;2023-04-03T00:23:46;3.40;99.90
36654;DHT22;22650;49.350;20.898;2023-04-03T00:26:21;3.40;99.90
36654;DHT22;22650;49.350;20.898;2023-04-03T00:28:55;3.40;99.90
36654;DHT22;22650;49.350;20.898;2023-04-03T00:31:28;3.40;99.90
36654;DHT22;22650;49.350;20.898;2023-04-03T00:34:02;3.40;99.90
36654;DHT22;22650;49.350;20.898;2023-04-03T00:36:35;3.30;99.90
36654;DHT22;22650;49.350;20.898;2023-04-03T00:39:09;3.30;99.90
36654;DHT22;22650;49.350;20.898;2023-04-03T00:41:44;3.30;99.90
36654;DHT22;22650;49.350;20.898;2023-04-03T00:44:22;3.30;99.90
36654;DHT22;22650;49.350;20.898;2023-04-03T00:47:17;3.30;99.90
36654;DHT22;22650;49.350;20.898;2023-04-03T00:49:52;3.30;99.90
36654;DHT22;22650;49.350;20.898;2023-04-03T00:52:28;3.30;99.90
36654;DHT22;22650;49.350;20.898;2023-04-03T00:55:06;3.30;99.90
36654;DHT22;22650;49.350;20.898;2023-04-03T00:57:41;3.30;99.90
36654;DHT22;22650;49.350;20.898;2023-04-03T01:00:19;3.30;99.90
36654;DHT22;22650;49.350;20.898;2023-04-03T01:02:55;3.30;99.90
36654;DHT22;22650;49.350;20.898;2023-04-03T01:05:30;3.20;99.90
36654;DHT22;22650;49.350;20.898;2023-04-03T01:08:05;3.20;99.90
36654;DHT22;22650;49.350;20.898;2023-04-03T01:10:38;3.20;99.90
36654;DHT22;22650;49.350;20.898;2023-04-03T01:13:21;3.20;99.90
36654;DHT22;22650;49.350;20.898;2023-04-03T01:15:55;3.20;99.90
36654;DHT22;22650;49.350;20.898;2023-04-03T01:18:31;3.20;99.90
36654;DHT22;22650;49.350;20.898;2023-04-03T01:24:20;3.20;99.90
36654;DHT22;22650;49.350;20.898;2023-04-03T01:26:55;3.20;99.90
36654;DHT22;22650;49.350;20.898;2023-04-03T01:29:29;3.20;99.90
36654;DHT22;22650;49.350;20.898;2023-04-03T01:32:04;3.30;99.90
36654;DHT22;22650;49.350;20.898;2023-04-03T01:34:38;3.30;99.90
36654;DHT22;22650;49.350;20.898;2023-04-03T01:37:11;3.30;99.90
36654;DHT22;22650;49.350;20.898;2023-04-03T01:39:45;3.20;99.90
36654;DHT22;22650;49.350;20.898;2023-04-03T01:42:18;3.20;99.90
36654;DHT22;22650;49.350;20.898;2023-04-03T01:44:52;3.20;99.90
36654;DHT22;22650;49.350;20.898;2023-04-03T01:47:27;3.20;99.90
36654;DHT22;22650;49.350;20.898;2023-04-03T01:50:01;3.10;99.90
36654;DHT22;22650;49.350;20.898;2023-04-03T01:52:37;3.10;99.90
36654;DHT22;22650;49.350;20.898;2023-04-03T01:55:10;3.10;99.90
36654;DHT22;22650;49.350;20.898;2023-04-03T01:57:44;3.00;99.90
36654;DHT22;22650;49.350;20.898;2023-04-03T02:00:18;3.00;99.90
36654;DHT22;22650;49.350;20.898;2023-04-03T02:02:53;3.00;99.90
36654;DHT22;22650;49.350;20.898;2023-04-03T02:05:26;3.00;99.90
36654;DHT22;22650;49.350;20.898;2023-04-03T02:08:00;2.90;99.90
36654;DHT22;22650;49.350;20.898;2023-04-03T02:10:33;2.90;99.90
36654;DHT22;22650;49.350;20.898;2023-04-03T02:13:07;2.90;99.90
36654;DHT22;22650;49.350;20.898;2023-04-03T02:15:41;2.90;99.90
36654;DHT22;22650;49.350;20.898;2023-04-03T02:18:16;2.90;99.90
36654;DHT22;22650;49.350;20.898;2023-04-03T02:20:50;2.90;99.90
36654;DHT22;22650;49.350;20.898;2023-04-03T02:23:23;2.80;99.90
36654;DHT22;22650;49.350;20.898;2023-04-03T02:26:04;2.90;99.90
36654;DHT22;22650;49.350;20.898;2023-04-03T02:28:38;2.90;99.90
36654;DHT22;22650;49.350;20.898;2023-04-03T02:31:13;2.80;99.90
36654;DHT22;22650;49.350;20.898;2023-04-03T02:33:50;2.70;99.90
36654;DHT22;22650;49.350;20.898;2023-04-03T02:36:23;2.80;99.90
36654;DHT22;22650;49.350;20.898;2023-04-03T02:39:01;2.70;99.90
36654;DHT22;22650;49.350;20.898;2023-04-03T02:41:35;2.70;99.90
36654;DHT22;22650;49.350;20.898;2023-04-03T02:44:14;2.70;99.90
36654;DHT22;22650;49.350;20.898;2023-04-03T02:46:48;2.70;99.90
36654;DHT22;22650;49.350;20.898;2023-04-03T02:49:23;2.70;99.90
36654;DHT22;22650;49.350;20.898;2023-04-03T02:51:57;2.70;99.90
36654;DHT22;22650;49.350;20.898;2023-04-03T02:54:30;2.70;99.90
36654;DHT22;22650;49.350;20.898;2023-04-03T02:57:07;2.70;99.90
36654;DHT22;22650;49.350;20.898;2023-04-03T02:59:42;2.70;99.90
36654;DHT22;22650;49.350;20.898;2023-04-03T03:02:17;2.70;99.90
36654;DHT22;22650;49.350;20.898;2023-04-03T03:04:52;2.70;99.90
36654;DHT22;22650;49.350;20.898;2023-04-03T03:07:25;2.70;99.90
36654;DHT22;22650;49.350;20.898;2023-04-03T03:09:59;2.70;99.90
36654;DHT22;22650;49.350;20.898;2023-04-03T03:12:32;2.70;99.90
36654;DHT22;22650;49.350;20.898;2023-04-03T03:15:07;2.70;99.90
36654;DHT22;22650;49.350;20.898;2023-04-03T03:17:40;2.70;99.90
36654;DHT22;22650;49.350;20.898;2023-04-03T03:20:16;2.70;99.90
36654;DHT22;22650;49.350;20.898;2023-04-03T03:22:49;2.70;99.90
36654;DHT22;22650;49.350;20.898;2023-04-03T03:25:23;2.70;99.90
36654;DHT22;22650;49.350;20.898;2023-04-03T03:27:56;2.60;99.90
36654;DHT22;22650;49.350;20.898;2023-04-03T03:30:30;2.60;99.90
36654;DHT22;22650;49.350;20.898;2023-04-03T03:33:04;2.50;99.90
36654;DHT22;22650;49.350;20.898;2023-04-03T03:35:39;2.50;99.90
36654;DHT22;22650;49.350;20.898;2023-04-03T03:38:13;2.50;99.90
36654;DHT22;22650;49.350;20.898;2023-04-03T03:40:47;2.50;99.90
36654;DHT22;22650;49.350;20.898;2023-04-03T03:43:24;2.50;99.90
36654;DHT22;22650;49.350;20.898;2023-04-03T03:45:58;2.50;99.90
36654;DHT22;22650;49.350;20.898;2023-04-03T03:48:32;2.50;99.90
36654;DHT22;22650;49.350;20.898;2023-04-03T03:51:08;2.50;99.90
36654;DHT22;22650;49.350;20.898;2023-04-03T03:53:43;2.50;99.90
36654;DHT22;22650;49.350;20.898;2023-04-03T03:56:20;2.50;99.90
36654;DHT22;22650;49.350;20.898;2023-04-03T03:58:55;2.50;99.90
36654;DHT22;22650;49.350;20.898;2023-04-03T04:01:29;2.50;99.90
36654;DHT22;22650;49.350;20.898;2023-04-03T04:04:02;2.50;99.90
36654;DHT22;22650;49.350;20.898;2023-04-03T04:06:38;2.50;99.90
36654;DHT22;22650;49.350;20.898;2023-04-03T04:09:13;2.50;99.90
36654;DHT22;22650;49.350;20.898;2023-04-03T04:11:47;2.50;99.90
36654;DHT22;22650;49.350;20.898;2023-04-03T04:14:22;2.50;99.90
36654;DHT22;22650;49.350;20.898;2023-04-03T04:16:56;2.40;99.90
36654;DHT22;22650;49.350;20.898;2023-04-03T04:19:32;2.40;99.90
36654;DHT22;22650;49.350;20.898;2023-04-03T04:22:07;2.40;99.90
36654;DHT22;22650;49.350;20.898;2023-04-03T04:24:41;2.30;99.90
36654;DHT22;22650;49.350;20.898;2023-04-03T04:27:14;2.30;99.90
36654;DHT22;22650;49.350;20.898;2023-04-03T04:29:49;2.30;99.90
36654;DHT22;22650;49.350;20.898;2023-04-03T04:32:23;2.30;99.90
36654;DHT22;22650;49.350;20.898;2023-04-03T04:34:57;2.20;99.90
36654;DHT22;22650;49.350;20.898;2023-04-03T04:37:33;2.20;99.90
36654;DHT22;22650;49.350;20.898;2023-04-03T04:40:08;2.20;99.90
36654;DHT22;22650;49.350;20.898;2023-04-03T04:42:42;2.20;99.90
36654;DHT22;22650;49.350;20.898;2023-04-03T04:45:16;2.20;99.90
36654;DHT22;22650;49.350;20.898;2023-04-03T04:47:53;2.20;99.90
36654;DHT22;22650;49.350;20.898;2023-04-03T04:50:29;2.20;99.90
36654;DHT22;22650;49.350;20.898;2023-04-03T04:53:04;2.20;99.90
36654;DHT22;22650;49.350;20.898;2023-04-03T04:55:38;2.30;99.90
36654;DHT22;22650;49.350;20.898;2023-04-03T04:58:11;2.30;99.90
36654;DHT22;22650;49.350;20.898;2023-04-03T05:00:45;2.30;99.90
36654;DHT22;22650;49.350;20.898;2023-04-03T05:03:19;2.30;99.90
36654;DHT22;22650;49.350;20.898;2023-04-03T05:05:52;2.30;99.90
36654;DHT22;22650;49.350;20.898;2023-04-03T05:08:27;2.30;99.90
36654;DHT22;22650;49.350;20.898;2023-04-03T05:11:01;2.30;99.90
36654;DHT22;22650;49.350;20.898;2023-04-03T05:13:35;2.30;99.90
36654;DHT22;22650;49.350;20.898;2023-04-03T05:16:09;2.30;99.90
36654;DHT22;22650;49.350;20.898;2023-04-03T05:18:43;2.30;99.90
36654;DHT22;22650;49.350;20.898;2023-04-03T05:21:22;2.30;99.90
36654;DHT22;22650;49.350;20.898;2023-04-03T05:24:01;2.30;99.90
36654;DHT22;22650;49.350;20.898;2023-04-03T05:26:38;2.40;99.90
36654;DHT22;22650;49.350;20.898;2023-04-03T05:29:12;2.40;99.90
36654;DHT22;22650;49.350;20.898;2023-04-03T05:31:48;2.40;99.90
36654;DHT22;22650;49.350;20.898;2023-04-03T05:34:22;2.40;99.90
36654;DHT22;22650;49.350;20.898;2023-04-03T05:36:57;2.40;99.90
36654;DHT22;22650;49.350;20.898;2023-04-03T05:39:34;2.40;99.90
36654;DHT22;22650;49.350;20.898;2023-04-03T05:42:09;2.50;99.90
36654;DHT22;22650;49.350;20.898;2023-04-03T05:44:43;2.50;99.90
36654;DHT22;22650;49.350;20.898;2023-04-03T05:47:19;2.50;99.90
36654;DHT22;22650;49.350;20.898;2023-04-03T05:49:53;2.50;99.90
36654;DHT22;22650;49.350;20.898;2023-04-03T05:52:28;2.60;99.90
36654;DHT22;22650;49.350;20.898;2023-04-03T05:55:04;2.60;99.90
36654;DHT22;22650;49.350;20.898;2023-04-03T05:57:39;2.60;99.90
36654;DHT22;22650;49.350;20.898;2023-04-03T06:00:14;2.60;99.90
36654;DHT22;22650;49.350;20.898;2023-04-03T06:02:56;2.60;99.90
36654;DHT22;22650;49.350;20.898;2023-04-03T06:05:30;2.60;99.90
36654;DHT22;22650;49.350;20.898;2023-04-03T06:08:04;2.60;99.90
36654;DHT22;22650;49.350;20.898;2023-04-03T06:10:39;2.50;99.90
36654;DHT22;22650;49.350;20.898;2023-04-03T06:13:12;2.50;99.90
36654;DHT22;22650;49.350;20.898;2023-04-03T06:15:46;2.50;99.90
36654;DHT22;22650;49.350;20.898;2023-04-03T06:18:21;2.40;99.90
36654;DHT22;22650;49.350;20.898;2023-04-03T06:20:54;2.30;99.90
36654;DHT22;22650;49.350;20.898;2023-04-03T06:23:28;2.30;99.90
36654;DHT22;22650;49.350;20.898;2023-04-03T06:26:03;2.20;99.90
36654;DHT22;22650;49.350;20.898;2023-04-03T06:28:37;2.20;99.90
36654;DHT22;22650;49.350;20.898;2023-04-03T06:31:11;2.20;99.90
36654;DHT22;22650;49.350;20.898;2023-04-03T06:33:45;2.20;99.90
36654;DHT22;22650;49.350;20.898;2023-04-03T06:36:19;2.30;99.90
36654;DHT22;22650;49.350;20.898;2023-04-03T06:38:53;2.20;99.90
36654;DHT22;22650;49.350;20.898;2023-04-03T06:41:29;2.30;99.90
36654;DHT22;22650;49.350;20.898;2023-04-03T06:44:02;2.20;99.90
36654;DHT22;22650;49.350;20.898;2023-04-03T06:46:36;2.20;99.90
36654;DHT22;22650;49.350;20.898;2023-04-03T06:49:10;2.30;99.90
36654;DHT22;22650;49.350;20.898;2023-04-03T06:51:44;2.30;99.90
36654;DHT22;22650;49.350;20.898;2023-04-03T06:54:17;2.30;99.90
36654;DHT22;22650;49.350;20.898;2023-04-03T06:56:52;2.40;99.90
36654;DHT22;22650;49.350;20.898;2023-04-03T06:59:26;2.40;99.90
36654;DHT22;22650;49.350;20.898;2023-04-03T07:02:00;2.40;99.90
36654;DHT22;22650;49.350;20.898;2023-04-03T07:04:33;2.40;99.90
36654;DHT22;22650;49.350;20.898;2023-04-03T07:07:08;2.50;99.90
36654;DHT22;22650;49.350;20.898;2023-04-03T07:09:42;2.50;99.90
36654;DHT22;22650;49.350;20.898;2023-04-03T07:12:18;2.40;99.90
36654;DHT22;22650;49.350;20.898;2023-04-03T07:14:52;2.50;99.90
36654;DHT22;22650;49.350;20.898;2023-04-03T07:17:26;2.50;99.90
36654;DHT22;22650;49.350;20.898;2023-04-03T07:19:59;2.50;99.90
36654;DHT22;22650;49.350;20.898;2023-04-03T07:22:36;2.50;99.90
36654;DHT22;22650;49.350;20.898;2023-04-03T07:25:09;2.50;99.90
36654;DHT22;22650;49.350;20.898;2023-04-03T07:27:44;2.60;99.90
36654;DHT22;22650;49.350;20.898;2023-04-03T07:30:18;2.50;99.90
36654;DHT22;22650;49.350;20.898;2023-04-03T07:32:51;2.60;99.90
36654;DHT22;22650;49.350;20.898;2023-04-03T07:35:25;2.70;99.90
36654;DHT22;22650;49.350;20.898;2023-04-03T07:37:59;2.70;99.90
36654;DHT22;22650;49.350;20.898;2023-04-03T07:40:33;2.70;99.90
36654;DHT22;22650;49.350;20.898;2023-04-03T07:43:09;2.70;99.90
36654;DHT22;22650;49.350;20.898;2023-04-03T07:45:43;2.70;99.90
36654;DHT22;22650;49.350;20.898;2023-04-03T07:48:23;2.70;99.90
36654;DHT22;22650;49.350;20.898;2023-04-03T07:50:59;2.80;99.90
36654;DHT22;22650;49.350;20.898;2023-04-03T07:53:33;2.90;99.90
36654;DHT22;22650;49.350;20.898;2023-04-03T07:56:07;3.00;99.90
36654;DHT22;22650;49.350;20.898;2023-04-03T07:58:42;3.00;99.90
36654;DHT22;22650;49.350;20.898;2023-04-03T08:01:16;3.00;99.90
36654;DHT22;22650;49.350;20.898;2023-04-03T08:03:49;3.00;99.90
36654;DHT22;22650;49.350;20.898;2023-04-03T08:06:24;3.00;99.90
36654;DHT22;22650;49.350;20.898;2023-04-03T08:09:17;2.90;99.90
36654;DHT22;22650;49.350;20.898;2023-04-03T08:11:51;2.90;99.90
36654;DHT22;22650;49.350;20.898;2023-04-03T08:14:27;2.80;99.90
36654;DHT22;22650;49.350;20.898;2023-04-03T08:17:03;2.80;99.90
36654;DHT22;22650;49.350;20.898;2023-04-03T08:19:38;2.80;99.90
36654;DHT22;22650;49.350;20.898;2023-04-03T08:22:11;2.90;99.90
36654;DHT22;22650;49.350;20.898;2023-04-03T08:24:45;3.00;99.90
36654;DHT22;22650;49.350;20.898;2023-04-03T08:27:30;2.90;99.90
36654;DHT22;22650;49.350;20.898;2023-04-03T08:30:09;3.00;99.90
36654;DHT22;22650;49.350;20.898;2023-04-03T08:32:42;3.10;99.90
36654;DHT22;22650;49.350;20.898;2023-04-03T08:35:17;3.20;99.90
36654;DHT22;22650;49.350;20.898;2023-04-03T08:37:52;3.30;99.90
36654;DHT22;22650;49.350;20.898;2023-04-03T08:40:25;3.30;99.90
36654;DHT22;22650;49.350;20.898;2023-04-03T08:43:09;3.30;99.90
36654;DHT22;22650;49.350;20.898;2023-04-03T08:45:50;3.30;99.90
36654;DHT22;22650;49.350;20.898;2023-04-03T08:48:29;3.40;99.90
36654;DHT22;22650;49.350;20.898;2023-04-03T08:51:08;3.40;99.90
36654;DHT22;22650;49.350;20.898;2023-04-03T08:53:51;3.40;99.90
36654;DHT22;22650;49.350;20.898;2023-04-03T08:56:27;3.50;99.90
36654;DHT22;22650;49.350;20.898;2023-04-03T08:59:06;3.50;99.90
36654;DHT22;22650;49.350;20.898;2023-04-03T09:01:44;3.50;99.90
36654;DHT22;22650;49.350;20.898;2023-04-03T09:04:18;3.50;99.90
36654;DHT22;22650;49.350;20.898;2023-04-03T09:06:56;3.50;99.90
36654;DHT22;22650;49.350;20.898;2023-04-03T09:09:34;3.60;99.90
36654;DHT22;22650;49.350;20.898;2023-04-03T09:12:17;3.70;99.90
36654;DHT22;22650;49.350;20.898;2023-04-03T09:14:58;3.70;99.90
36654;DHT22;22650;49.350;20.898;2023-04-03T09:17:41;3.70;99.90
36654;DHT22;22650;49.350;20.898;2023-04-03T09:20:25;3.70;99.90
36654;DHT22;22650;49.350;20.898;2023-04-03T09:23:01;3.80;99.90
36654;DHT22;22650;49.350;20.898;2023-04-03T09:25:39;3.60;99.90
36654;DHT22;22650;49.350;20.898;2023-04-03T09:28:13;3.70;99.90
36654;DHT22;22650;49.350;20.898;2023-04-03T09:30:47;3.70;99.90
36654;DHT22;22650;49.350;20.898;2023-04-03T09:33:22;3.70;99.90
36654;DHT22;22650;49.350;20.898;2023-04-03T09:35:56;3.70;99.90
36654;DHT22;22650;49.350;20.898;2023-04-03T09:38:31;3.60;99.90
36654;DHT22;22650;49.350;20.898;2023-04-03T09:41:11;3.70;99.90
36654;DHT22;22650;49.350;20.898;2023-04-03T09:43:53;3.70;99.90
36654;DHT22;22650;49.350;20.898;2023-04-03T09:46:32;3.70;99.90
36654;DHT22;22650;49.350;20.898;2023-04-03T09:49:11;3.70;99.90
36654;DHT22;22650;49.350;20.898;2023-04-03T09:51:45;3.90;99.90
36654;DHT22;22650;49.350;20.898;2023-04-03T09:54:31;3.90;99.90
36654;DHT22;22650;49.350;20.898;2023-04-03T09:57:08;4.10;99.90
36654;DHT22;22650;49.350;20.898;2023-04-03T09:59:56;4.00;99.90
36654;DHT22;22650;49.350;20.898;2023-04-03T10:02:37;3.90;99.90
36654;DHT22;22650;49.350;20.898;2023-04-03T10:05:29;4.00;99.90
36654;DHT22;22650;49.350;20.898;2023-04-03T10:08:09;3.90;99.90
36654;DHT22;22650;49.350;20.898;2023-04-03T10:10:45;4.00;99.90
36654;DHT22;22650;49.350;20.898;2023-04-03T10:13:20;3.90;99.90
36654;DHT22;22650;49.350;20.898;2023-04-03T10:15:57;3.90;99.90
36654;DHT22;22650;49.350;20.898;2023-04-03T10:18:40;4.00;99.90
36654;DHT22;22650;49.350;20.898;2023-04-03T10:21:29;4.10;99.90
36654;DHT22;22650;49.350;20.898;2023-04-03T10:24:11;4.00;99.90
36654;DHT22;22650;49.350;20.898;2023-04-03T10:26:52;4.00;99.90
36654;DHT22;22650;49.350;20.898;2023-04-03T10:29:39;3.90;99.90
36654;DHT22;22650;49.350;20.898;2023-04-03T10:32:35;3.70;99.90
36654;DHT22;22650;49.350;20.898;2023-04-03T10:35:20;3.70;99.90
36654;DHT22;22650;49.350;20.898;2023-04-03T10:38:03;3.50;99.90
36654;DHT22;22650;49.350;20.898;2023-04-03T10:40:46;3.60;99.90
36654;DHT22;22650;49.350;20.898;2023-04-03T10:43:27;3.60;99.90
36654;DHT22;22650;49.350;20.898;2023-04-03T10:46:04;3.60;99.90
36654;DHT22;22650;49.350;20.898;2023-04-03T10:49:01;3.60;99.90
36654;DHT22;22650;49.350;20.898;2023-04-03T10:51:41;3.60;99.90
36654;DHT22;22650;49.350;20.898;2023-04-03T10:54:22;3.60;99.90
36654;DHT22;22650;49.350;20.898;2023-04-03T10:57:00;3.80;99.90
36654;DHT22;22650;49.350;20.898;2023-04-03T10:59:45;3.80;99.90
36654;DHT22;22650;49.350;20.898;2023-04-03T11:02:24;3.90;99.90
36654;DHT22;22650;49.350;20.898;2023-04-03T11:05:05;4.00;99.90
36654;DHT22;22650;49.350;20.898;2023-04-03T11:07:45;4.10;99.90
36654;DHT22;22650;49.350;20.898;2023-04-03T11:10:25;4.10;99.90
36654;DHT22;22650;49.350;20.898;2023-04-03T11:13:08;4.20;99.90
36654;DHT22;22650;49.350;20.898;2023-04-03T11:15:44;4.20;99.90
36654;DHT22;22650;49.350;20.898;2023-04-03T11:18:23;4.20;99.90
36654;DHT22;22650;49.350;20.898;2023-04-03T11:21:02;4.10;99.90
36654;DHT22;22650;49.350;20.898;2023-04-03T11:23:39;4.10;99.90
36654;DHT22;22650;49.350;20.898;2023-04-03T11:26:26;4.20;99.90
36654;DHT22;22650;49.350;20.898;2023-04-03T11:29:05;4.10;99.90
36654;DHT22;22650;49.350;20.898;2023-04-03T11:31:49;4.10;99.90
36654;DHT22;22650;49.350;20.898;2023-04-03T11:34:34;4.20;99.90
36654;DHT22;22650;49.350;20.898;2023-04-03T11:37:17;4.30;99.90
36654;DHT22;22650;49.350;20.898;2023-04-03T11:39:57;4.50;99.90
36654;DHT22;22650;49.350;20.898;2023-04-03T11:42:36;4.40;99.90
36654;DHT22;22650;49.350;20.898;2023-04-03T11:45:25;4.40;99.90
36654;DHT22;22650;49.350;20.898;2023-04-03T11:48:03;4.40;99.90
36654;DHT22;22650;49.350;20.898;2023-04-03T11:50:54;4.30;99.90
36654;DHT22;22650;49.350;20.898;2023-04-03T11:53:36;4.30;99.90
36654;DHT22;22650;49.350;20.898;2023-04-03T11:56:27;4.30;99.90
36654;DHT22;22650;49.350;20.898;2023-04-03T11:59:16;4.30;99.90
36654;DHT22;22650;49.350;20.898;2023-04-03T12:01:55;4.00;99.90
36654;DHT22;22650;49.350;20.898;2023-04-03T12:04:30;4.10;99.90
36654;DHT22;22650;49.350;20.898;2023-04-03T12:07:17;4.20;99.90
36654;DHT22;22650;49.350;20.898;2023-04-03T12:09:57;4.00;99.90
36654;DHT22;22650;49.350;20.898;2023-04-03T12:12:38;3.80;99.90
36654;DHT22;22650;49.350;20.898;2023-04-03T12:15:41;3.80;99.90
36654;DHT22;22650;49.350;20.898;2023-04-03T12:19:00;3.70;99.90
36654;DHT22;22650;49.350;20.898;2023-04-03T12:22:08;3.60;99.90
36654;DHT22;22650;49.350;20.898;2023-04-03T12:24:42;3.60;99.90
36654;DHT22;22650;49.350;20.898;2023-04-03T12:27:38;3.50;99.90
36654;DHT22;22650;49.350;20.898;2023-04-03T12:30:18;3.50;99.90
36654;DHT22;22650;49.350;20.898;2023-04-03T12:33:22;3.30;99.90
36654;DHT22;22650;49.350;20.898;2023-04-03T12:36:05;3.20;99.90
36654;DHT22;22650;49.350;20.898;2023-04-03T12:39:00;3.30;99.90
36654;DHT22;22650;49.350;20.898;2023-04-03T12:41:37;3.20;99.90
36654;DHT22;22650;49.350;20.898;2023-04-03T12:44:31;3.20;99.90
36654;DHT22;22650;49.350;20.898;2023-04-03T12:47:21;3.20;99.90
36654;DHT22;22650;49.350;20.898;2023-04-03T12:49:57;3.20;99.90
36654;DHT22;22650;49.350;20.898;2023-04-03T12:52:36;3.10;99.90
36654;DHT22;22650;49.350;20.898;2023-04-03T12:55:17;3.10;99.90
36654;DHT22;22650;49.350;20.898;2023-04-03T12:57:52;3.10;99.90
36654;DHT22;22650;49.350;20.898;2023-04-03T13:00:33;3.00;99.90
36654;DHT22;22650;49.350;20.898;2023-04-03T13:03:21;2.90;99.90
36654;DHT22;22650;49.350;20.898;2023-04-03T13:06:00;2.90;99.90
36654;DHT22;22650;49.350;20.898;2023-04-03T13:08:35;2.80;99.90
36654;DHT22;22650;49.350;20.898;2023-04-03T13:11:10;2.70;99.90
36654;DHT22;22650;49.350;20.898;2023-04-03T13:13:55;2.70;99.90
36654;DHT22;22650;49.350;20.898;2023-04-03T13:16:29;2.70;99.90
36654;DHT22;22650;49.350;20.898;2023-04-03T13:19:04;2.70;99.90
36654;DHT22;22650;49.350;20.898;2023-04-03T13:21:39;2.70;99.90
36654;DHT22;22650;49.350;20.898;2023-04-03T13:24:12;2.70;99.90
36654;DHT22;22650;49.350;20.898;2023-04-03T13:26:47;2.70;99.90
36654;DHT22;22650;49.350;20.898;2023-04-03T13:29:25;2.70;99.90
36654;DHT22;22650;49.350;20.898;2023-04-03T13:32:04;2.60;99.90
36654;DHT22;22650;49.350;20.898;2023-04-03T13:34:41;2.60;99.90
36654;DHT22;22650;49.350;20.898;2023-04-03T13:37:25;2.60;99.90
36654;DHT22;22650;49.350;20.898;2023-04-03T13:40:08;2.60;99.90
36654;DHT22;22650;49.350;20.898;2023-04-03T13:42:43;2.50;99.90
36654;DHT22;22650;49.350;20.898;2023-04-03T13:45:20;2.50;99.90
36654;DHT22;22650;49.350;20.898;2023-04-03T13:48:09;2.50;99.90
36654;DHT22;22650;49.350;20.898;2023-04-03T13:51:00;2.60;99.90
36654;DHT22;22650;49.350;20.898;2023-04-03T13:53:43;2.50;99.90
36654;DHT22;22650;49.350;20.898;2023-04-03T13:56:18;2.40;99.90
36654;DHT22;22650;49.350;20.898;2023-04-03T13:58:55;2.30;99.90
36654;DHT22;22650;49.350;20.898;2023-04-03T14:01:39;2.30;99.90
36654;DHT22;22650;49.350;20.898;2023-04-03T14:04:17;2.30;99.90
36654;DHT22;22650;49.350;20.898;2023-04-03T14:06:51;2.30;99.90
36654;DHT22;22650;49.350;20.898;2023-04-03T14:09:27;2.20;99.90
36654;DHT22;22650;49.350;20.898;2023-04-03T14:12:05;2.20;99.90
36654;DHT22;22650;49.350;20.898;2023-04-03T14:14:49;2.30;99.90
36654;DHT22;22650;49.350;20.898;2023-04-03T14:17:24;2.30;99.90
36654;DHT22;22650;49.350;20.898;2023-04-03T14:19:59;2.30;99.90
36654;DHT22;22650;49.350;20.898;2023-04-03T14:22:33;2.20;99.90
36654;DHT22;22650;49.350;20.898;2023-04-03T14:25:09;2.10;99.90
36654;DHT22;22650;49.350;20.898;2023-04-03T14:27:44;2.00;99.90
36654;DHT22;22650;49.350;20.898;2023-04-03T14:30:21;2.00;99.90
36654;DHT22;22650;49.350;20.898;2023-04-03T14:32:55;1.90;99.90
36654;DHT22;22650;49.350;20.898;2023-04-03T14:35:29;2.00;99.90
36654;DHT22;22650;49.350;20.898;2023-04-03T14:38:05;2.00;99.90
36654;DHT22;22650;49.350;20.898;2023-04-03T14:40:47;2.00;99.90
36654;DHT22;22650;49.350;20.898;2023-04-03T14:43:20;1.90;99.90
36654;DHT22;22650;49.350;20.898;2023-04-03T14:45:54;2.00;99.90
36654;DHT22;22650;49.350;20.898;2023-04-03T14:48:29;2.00;99.90
36654;DHT22;22650;49.350;20.898;2023-04-03T14:51:04;2.00;99.90
36654;DHT22;22650;49.350;20.898;2023-04-03T14:53:37;2.00;99.90
36654;DHT22;22650;49.350;20.898;2023-04-03T14:56:13;2.00;99.90
36654;DHT22;22650;49.350;20.898;2023-04-03T14:58:47;1.90;99.90
36654;DHT22;22650;49.350;20.898;2023-04-03T15:01:22;1.90;99.90
36654;DHT22;22650;49.350;20.898;2023-04-03T15:03:57;1.90;99.90
36654;DHT22;22650;49.350;20.898;2023-04-03T15:06:32;1.80;99.90
36654;DHT22;22650;49.350;20.898;2023-04-03T15:09:14;1.80;99.90
36654;DHT22;22650;49.350;20.898;2023-04-03T15:11:53;1.70;99.90
36654;DHT22;22650;49.350;20.898;2023-04-03T15:14:27;1.60;99.90
36654;DHT22;22650;49.350;20.898;2023-04-03T15:17:14;1.60;99.90
36654;DHT22;22650;49.350;20.898;2023-04-03T15:19:48;1.60;99.90
36654;DHT22;22650;49.350;20.898;2023-04-03T15:22:21;1.50;99.90
36654;DHT22;22650;49.350;20.898;2023-04-03T15:24:55;1.50;99.90
36654;DHT22;22650;49.350;20.898;2023-04-03T15:27:29;1.50;99.90
36654;DHT22;22650;49.350;20.898;2023-04-03T15:30:04;1.50;99.90
36654;DHT22;22650;49.350;20.898;2023-04-03T15:32:37;1.50;99.90
36654;DHT22;22650;49.350;20.898;2023-04-03T15:35:11;1.50;99.90
36654;DHT22;22650;49.350;20.898;2023-04-03T15:37:44;1.50;99.90
36654;DHT22;22650;49.350;20.898;2023-04-03T15:40:18;1.40;99.90
36654;DHT22;22650;49.350;20.898;2023-04-03T15:42:54;1.40;99.90
36654;DHT22;22650;49.350;20.898;2023-04-03T15:45:29;1.40;99.90
36654;DHT22;22650;49.350;20.898;2023-04-03T15:48:04;1.40;99.90
36654;DHT22;22650;49.350;20.898;2023-04-03T15:50:39;1.40;99.90
36654;DHT22;22650;49.350;20.898;2023-04-03T15:53:13;1.40;99.90
36654;DHT22;22650;49.350;20.898;2023-04-03T15:55:46;1.40;99.90
36654;DHT22;22650;49.350;20.898;2023-04-03T15:58:21;1.40;99.90
36654;DHT22;22650;49.350;20.898;2023-04-03T16:00:55;1.40;99.90
36654;DHT22;22650;49.350;20.898;2023-04-03T16:03:28;1.50;99.90
36654;DHT22;22650;49.350;20.898;2023-04-03T16:06:03;1.40;99.90
36654;DHT22;22650;49.350;20.898;2023-04-03T16:08:37;1.40;99.90
36654;DHT22;22650;49.350;20.898;2023-04-03T16:11:10;1.40;99.90
36654;DHT22;22650;49.350;20.898;2023-04-03T16:13:45;1.40;99.90
36654;DHT22;22650;49.350;20.898;2023-04-03T16:16:19;1.40;99.90
36654;DHT22;22650;49.350;20.898;2023-04-03T16:18:53;1.40;99.90
36654;DHT22;22650;49.350;20.898;2023-04-03T16:21:28;1.40;99.90
36654;DHT22;22650;49.350;20.898;2023-04-03T16:24:02;1.40;99.90
36654;DHT22;22650;49.350;20.898;2023-04-03T16:26:36;1.40;99.90
36654;DHT22;22650;49.350;20.898;2023-04-03T16:29:11;1.50;99.90
36654;DHT22;22650;49.350;20.898;2023-04-03T16:31:44;1.50;99.90
36654;DHT22;22650;49.350;20.898;2023-04-03T16:34:18;1.50;99.90